Time;durP1;ratioP1;P1;durP2;ratioP2;P2;SDS_P1;SDS_P2;PMS_P1;PMS_P2;Temp;Humidity;BMP_temperature;BMP_pressure;BME280_temperature;BME280_humidity;BME280_pressure;Samples;Min_cycle;Max_cycle;Signal;HPM_P1;HPM_P2
2022/12/26 00:00:28;;;;;;;44.30;18.90;;;;;;;2.35;100.00;99866.77;105821;1285;74614;-68
2022/12/26 00:03:34;;;;;;;46.80;19.90;;;;;;;2.34;100.00;99866.61;105763;1294;66887;-68
2022/12/26 00:06:26;;;;;;;49.20;19.80;;;;;;;2.34;100.00;99871.16;105641;1297;73755;-68
2022/12/26 00:09:16;;;;;;;39.30;16.40;;;;;;;2.34;100.00;99863.99;105679;1297;58750;-68
2022/12/26 00:12:04;;;;;;;43.40;18.10;;;;;;;2.34;100.00;99873.11;105574;1291;60119;-65
2022/12/26 00:14:52;;;;;;;40.70;15.90;;;;;;;2.34;100.00;99875.38;105687;1287;73875;-64
2022/12/26 00:17:40;;;;;;;45.00;18.10;;;;;;;2.36;100.00;99877.57;105685;1295;67660;-66
2022/12/26 00:20:28;;;;;;;40.50;18.10;;;;;;;2.38;100.00;99873.97;105693;1293;72607;-65
2022/12/26 00:23:16;;;;;;;40.40;16.70;;;;;;;2.41;100.00;99873.67;105695;1294;58046;-66
2022/12/26 00:26:18;;;;;;;46.20;19.30;;;;;;;2.43;100.00;99868.31;105739;1294;60305;-68
2022/12/26 00:29:06;;;;;;;46.70;20.60;;;;;;;2.43;100.00;99867.95;105645;1293;72807;-66
2022/12/26 00:31:55;;;;;;;41.60;18.00;;;;;;;2.43;100.00;99859.02;105832;1294;66571;-67
2022/12/26 00:34:43;;;;;;;41.70;18.50;;;;;;;2.45;100.00;99855.64;105851;1292;71202;-68
2022/12/26 00:37:31;;;;;;;44.60;17.30;;;;;;;2.43;100.00;99851.69;105709;1287;57967;-68
2022/12/26 00:40:19;;;;;;;44.00;17.60;;;;;;;2.45;100.00;99843.20;105754;1288;58940;-68
2022/12/26 00:43:07;;;;;;;40.00;17.20;;;;;;;2.46;100.00;99833.34;105835;1292;72463;-66
2022/12/26 00:45:55;;;;;;;41.00;18.20;;;;;;;2.50;100.00;99841.50;105723;1293;66162;-67
2022/12/26 00:48:43;;;;;;;38.10;15.10;;;;;;;2.51;100.00;99841.84;105834;1295;73923;-67
2022/12/26 00:51:31;;;;;;;41.00;17.00;;;;;;;2.54;100.00;99835.57;105808;1293;58478;-67
2022/12/26 00:54:20;;;;;;;40.50;18.70;;;;;;;2.57;100.00;99832.80;105690;1288;58724;-68
2022/12/26 00:57:07;;;;;;;38.80;15.20;;;;;;;2.58;100.00;99823.64;105706;1294;73610;-68
2022/12/26 00:59:55;;;;;;;39.80;17.40;;;;;;;2.61;100.00;99820.72;105750;1294;67572;-65
2022/12/26 01:02:43;;;;;;;39.80;18.50;;;;;;;2.62;100.00;99821.00;105726;1290;72566;-65
2022/12/26 01:05:33;;;;;;;43.40;18.70;;;;;;;2.68;100.00;99811.26;105720;1294;58019;-65
2022/12/26 01:08:20;;;;;;;39.20;17.50;;;;;;;2.79;100.00;99800.23;105645;1294;60514;-65
2022/12/26 01:11:15;;;;;;;42.10;17.80;;;;;;;2.85;100.00;99782.38;105831;1294;72637;-65
2022/12/26 01:14:03;;;;;;;43.40;18.50;;;;;;;2.91;100.00;99768.77;105664;1297;68919;-66
2022/12/26 01:16:51;;;;;;;45.00;18.80;;;;;;;2.95;100.00;99764.19;105811;1285;71017;-65
2022/12/26 01:19:39;;;;;;;38.70;18.10;;;;;;;2.98;100.00;99769.29;105703;1295;59279;-64
2022/12/26 01:22:27;;;;;;;40.00;18.40;;;;;;;3.01;100.00;99769.46;105808;1287;58720;-65
2022/12/26 01:25:15;;;;;;;44.50;19.70;;;;;;;3.02;100.00;99763.45;105821;1293;71454;-66
2022/12/26 01:28:03;;;;;;;46.80;18.70;;;;;;;3.02;100.00;99764.15;105754;1295;67773;-66
2022/12/26 01:30:52;;;;;;;45.30;17.50;;;;;;;3.03;100.00;99754.86;105481;1294;72607;-67
2022/12/26 01:33:40;;;;;;;46.00;18.20;;;;;;;3.03;100.00;99747.64;105712;1295;58970;-65
2022/12/26 01:36:28;;;;;;;43.30;18.90;;;;;;;3.02;100.00;99741.58;105767;1294;60079;-66
2022/12/26 01:39:16;;;;;;;42.00;17.40;;;;;;;3.05;100.00;99744.21;105649;1290;75104;-66
2022/12/26 01:42:15;;;;;;;44.40;18.70;;;;;;;3.06;100.00;99736.23;105738;1294;67795;-68
2022/12/26 01:45:27;;;;;;;45.30;18.90;;;;;;;3.10;100.00;99746.59;105816;1278;72613;-66
2022/12/26 01:48:24;;;;;;;43.80;19.20;;;;;;;3.14;100.00;99743.23;105673;1298;58761;-67
2022/12/26 01:51:15;;;;;;;39.90;17.60;;;;;;;3.15;100.00;99739.52;105620;1292;58875;-71
2022/12/26 01:54:05;;;;;;;42.40;18.30;;;;;;;3.13;100.00;99747.48;105662;1293;73570;-66
2022/12/26 01:57:23;;;;;;;43.90;18.80;;;;;;;3.16;100.00;99732.61;105818;1287;67140;-65
2022/12/26 02:00:13;;;;;;;43.60;18.90;;;;;;;3.17;100.00;99726.25;105642;1296;73654;-66
2022/12/26 02:06:21;;;;;;;38.60;17.20;;;;;;;3.18;100.00;99707.95;105516;1294;60160;-68
2022/12/26 02:09:09;;;;;;;42.30;17.80;;;;;;;3.17;100.00;99706.58;105728;1293;73710;-66
2022/12/26 02:12:21;;;;;;;44.30;17.90;;;;;;;3.18;100.00;99705.68;105695;1290;68058;-65
2022/12/26 02:15:26;;;;;;;38.90;18.50;;;;;;;3.12;100.00;99677.24;105735;1294;71069;-68
2022/12/26 02:18:14;;;;;;;42.30;18.10;;;;;;;3.10;100.00;99667.68;105718;1294;58003;-70
2022/12/26 02:21:09;;;;;;;38.90;16.40;;;;;;;3.05;100.00;99658.49;105598;1290;58533;-68
2022/12/26 02:24:44;;;;;;;46.70;20.00;;;;;;;3.02;100.00;99653.04;105815;1277;74912;-67
2022/12/26 02:28:01;;;;;;;40.40;18.40;;;;;;;3.01;100.00;99648.19;105811;1291;69039;-65
2022/12/26 02:31:24;;;;;;;43.00;19.10;;;;;;;2.99;100.00;99641.99;105677;1297;71060;-67
2022/12/26 02:34:22;;;;;;;38.00;16.70;;;;;;;2.94;100.00;99629.80;105672;1278;59264;-68
2022/12/26 02:37:43;;;;;;;43.60;20.60;;;;;;;2.89;100.00;99613.56;105727;1294;61230;-67
2022/12/26 02:41:10;;;;;;;41.70;19.30;;;;;;;2.87;100.00;99596.86;105713;1293;73573;-66
2022/12/26 02:48:07;;;;;;;41.10;16.80;;;;;;;2.82;100.00;99570.34;105776;1285;73426;-65
2022/12/26 03:14:41;;;;;;;29.80;14.50;;;;;;;2.86;100.00;99517.55;105767;1295;74884;-64
2022/12/26 03:18:02;;;;;;;33.00;15.20;;;;;;;2.90;100.00;99506.45;105715;1291;67011;-65
2022/12/26 03:20:51;;;;;;;31.10;14.10;;;;;;;2.93;100.00;99493.86;105658;1289;72625;-64
2022/12/26 03:23:42;;;;;;;27.20;12.40;;;;;;;2.98;100.00;99483.78;105667;1288;58482;-64
2022/12/26 03:26:39;;;;;;;31.40;14.70;;;;;;;2.98;100.00;99469.73;105681;1294;60032;-64
2022/12/26 03:32:43;;;;;;;32.10;14.70;;;;;;;3.04;100.00;99468.36;105848;1288;68691;-65
2022/12/26 03:35:33;;;;;;;30.20;13.40;;;;;;;3.06;100.00;99457.23;105712;1294;72416;-67
2022/12/26 03:39:11;;;;;;;31.50;15.10;;;;;;;3.05;100.00;99443.61;105609;1297;59800;-65
2022/12/26 04:19:25;;;;;;;35.30;17.20;;;;;;;2.94;100.00;99375.89;105488;1301;72224;-64
2022/12/26 04:45:07;;;;;;;29.90;13.50;;;;;;;2.92;100.00;99329.71;105822;1290;58760;-66
2022/12/26 04:51:04;;;;;;;26.70;12.70;;;;;;;2.91;100.00;99322.95;105756;1293;73847;-66
2022/12/26 04:53:52;;;;;;;26.20;12.00;;;;;;;2.91;100.00;99312.61;105598;1294;67562;-68
2022/12/26 04:56:40;;;;;;;23.70;10.10;;;;;;;2.91;100.00;99313.98;105712;1294;72365;-64
2022/12/26 04:59:28;;;;;;;20.60;10.30;;;;;;;2.93;100.00;99306.68;105750;1294;58065;-65
2022/12/26 05:11:46;;;;;;;16.60;8.60;;;;;;;2.93;100.00;99272.16;105694;1294;72355;-63
2022/12/26 05:14:35;;;;;;;16.30;8.60;;;;;;;2.93;100.00;99263.06;105601;1297;58716;-64
2022/12/26 05:28:40;;;;;;;17.10;8.30;;;;;;;2.94;100.00;99242.36;105831;1294;71605;-64
2022/12/26 05:29:50;;;;;;;17.60;9.00;;;;;;;2.98;100.00;99231.95;105748;1295;57977;-66
2022/12/26 05:35:44;;;;;;;17.60;8.30;;;;;;;3.04;100.00;99208.27;105797;1291;73543;-68
2022/12/26 05:38:32;;;;;;;19.40;9.70;;;;;;;3.05;100.00;99205.36;105766;1271;68124;-66
2022/12/26 05:41:20;;;;;;;21.80;10.80;;;;;;;3.07;100.00;99203.53;105844;1292;73830;-67
2022/12/26 05:44:09;;;;;;;19.70;9.60;;;;;;;3.05;100.00;99196.28;105705;1294;58552;-69
2022/12/26 05:46:57;;;;;;;19.70;10.00;;;;;;;3.06;100.00;99189.73;105731;1295;60132;-69
2022/12/26 05:49:45;;;;;;;19.20;9.10;;;;;;;3.06;100.00;99182.57;105746;1291;150009;-69
2022/12/26 05:52:33;;;;;;;20.90;9.50;;;;;;;3.05;100.00;99172.96;105891;1290;68067;-73
2022/12/26 05:55:22;;;;;;;18.20;8.10;;;;;;;3.04;100.00;99181.77;105860;1292;72441;-66
2022/12/26 05:58:10;;;;;;;15.50;6.70;;;;;;;3.05;100.00;99183.15;105765;1298;58962;-67
2022/12/26 06:01:11;;;;;;;15.10;6.80;;;;;;;3.06;100.00;99176.26;105684;1290;61151;-67
2022/12/26 06:03:59;;;;;;;15.30;6.70;;;;;;;3.08;100.00;99167.54;105796;1277;74897;-70
2022/12/26 06:06:48;;;;;;;13.70;6.20;;;;;;;3.08;100.00;99176.33;105691;1295;67838;-69
2022/12/26 06:09:36;;;;;;;12.70;5.70;;;;;;;3.05;100.00;99167.70;105802;1290;70276;-70
2022/12/26 06:12:24;;;;;;;11.70;5.20;;;;;;;3.06;100.00;99163.98;105705;1294;58199;-69
2022/12/26 06:15:12;;;;;;;11.30;5.50;;;;;;;3.05;100.00;99162.29;105903;1292;59999;-69
2022/12/26 06:17:59;;;;;;;9.00;3.90;;;;;;;3.04;100.00;99151.34;105876;1284;73500;-69
2022/12/26 06:20:47;;;;;;;12.80;5.30;;;;;;;3.01;100.00;99156.58;105873;1292;66228;-70
2022/12/26 06:23:36;;;;;;;10.30;5.30;;;;;;;3.00;100.00;99143.11;105866;1285;74166;-71
2022/12/26 06:26:23;;;;;;;11.70;5.60;;;;;;;3.04;100.00;99145.36;105867;1291;58027;-71
2022/12/26 06:29:12;;;;;;;11.60;5.00;;;;;;;3.05;100.00;99135.64;105737;1293;61100;-71
2022/12/26 06:31:59;;;;;;;10.00;5.00;;;;;;;3.05;100.00;99130.56;105872;1293;72567;-72
2022/12/26 06:34:48;;;;;;;11.80;5.40;;;;;;;3.05;100.00;99127.41;105867;1284;66770;-70
2022/12/26 06:37:35;;;;;;;11.00;5.20;;;;;;;3.07;100.00;99123.80;105885;1292;71919;-72
2022/12/26 06:40:24;;;;;;;11.90;5.50;;;;;;;3.07;100.00;99122.58;105718;1294;58710;-72
2022/12/26 06:43:11;;;;;;;13.20;5.20;;;;;;;3.08;100.00;99109.90;105888;1291;58773;-71
2022/12/26 06:46:02;;;;;;;12.00;5.40;;;;;;;3.11;100.00;99106.91;105881;1292;73550;-71
2022/12/26 06:48:51;;;;;;;13.90;6.10;;;;;;;3.12;100.00;99104.56;105897;1292;67561;-71
2022/12/26 06:51:39;;;;;;;13.00;5.70;;;;;;;3.14;100.00;99103.19;105727;1298;71129;-70
2022/12/26 06:54:28;;;;;;;11.60;5.80;;;;;;;3.16;100.00;99103.11;105866;1290;58566;-71
2022/12/26 06:57:15;;;;;;;11.10;4.80;;;;;;;3.15;100.00;99091.20;105891;1284;58967;-70
2022/12/26 07:00:04;;;;;;;11.90;5.40;;;;;;;3.18;100.00;99085.25;101437;1292;1002702;-73
2022/12/26 07:02:52;;;;;;;11.50;5.20;;;;;;;3.20;100.00;99083.39;105870;1284;68842;-72
2022/12/26 07:05:40;;;;;;;11.90;5.50;;;;;;;3.21;100.00;99075.58;105731;1294;72870;-71
2022/12/26 07:08:28;;;;;;;9.10;4.70;;;;;;;3.24;100.00;99076.08;105839;1292;58598;-67
2022/12/26 07:11:20;;;;;;;11.20;4.90;;;;;;;3.26;100.00;99070.89;105089;1295;1002500;-68
2022/12/26 07:14:09;;;;;;;9.80;4.40;;;;;;;3.25;100.00;99064.79;105825;1292;73590;-69
2022/12/26 07:16:56;;;;;;;9.20;4.20;;;;;;;3.27;100.00;99059.10;105786;1295;67976;-68
2022/12/26 07:19:44;;;;;;;10.90;4.60;;;;;;;3.28;100.00;99060.45;105849;1291;73078;-69
2022/12/26 07:22:32;;;;;;;8.90;4.00;;;;;;;3.31;100.00;99058.83;105842;1284;59642;-71
2022/12/26 07:25:20;;;;;;;9.70;4.60;;;;;;;3.34;100.00;99063.59;105875;1291;61403;-68
2022/12/26 07:28:08;;;;;;;9.30;4.40;;;;;;;3.37;100.00;99068.05;105679;1294;73677;-67
2022/12/26 07:30:59;;;;;;;9.30;4.00;;;;;;;3.42;100.00;99067.99;105806;1301;66481;-66
2022/12/26 07:33:52;;;;;;;8.50;4.00;;;;;;;3.43;100.00;99065.80;105800;1285;73712;-70
2022/12/26 07:36:40;;;;;;;7.90;3.40;;;;;;;3.45;100.00;99059.68;105778;1290;59437;-70
2022/12/26 07:39:29;;;;;;;8.00;3.60;;;;;;;3.49;100.00;99051.58;105558;1297;59221;-71
2022/12/26 07:42:19;;;;;;;7.90;3.40;;;;;;;3.53;100.00;99049.17;105789;1294;72473;-73
2022/12/26 07:45:08;;;;;;;7.80;3.40;;;;;;;3.54;100.00;99047.73;105872;1297;67515;-69
2022/12/26 07:47:57;;;;;;;7.50;3.30;;;;;;;3.54;100.00;99044.71;105874;1298;72614;-69
2022/12/26 07:50:46;;;;;;;7.50;3.10;;;;;;;3.56;100.00;99042.64;105883;1284;58074;-68
2022/12/26 07:53:34;;;;;;;7.70;3.30;;;;;;;3.60;100.00;99041.89;105764;1295;58834;-70
2022/12/26 07:56:22;;;;;;;7.90;3.40;;;;;;;3.64;100.00;99039.34;105734;1295;72629;-69
2022/12/26 07:59:16;;;;;;;8.20;3.50;;;;;;;3.66;100.00;99032.00;105724;1294;66447;-69
2022/12/26 08:02:04;;;;;;;7.90;3.50;;;;;;;3.70;100.00;99030.38;105794;1294;72350;-70
2022/12/26 08:04:53;;;;;;;8.10;3.40;;;;;;;3.72;100.00;99028.46;105658;1293;58100;-71
2022/12/26 08:07:40;;;;;;;7.70;3.50;;;;;;;3.72;100.00;99023.20;105637;1294;59031;-69
2022/12/26 08:10:28;;;;;;;8.10;3.60;;;;;;;3.77;100.00;99021.52;105688;1285;75397;-68
2022/12/26 08:13:16;;;;;;;8.30;3.60;;;;;;;3.79;100.00;99018.04;105779;1290;68667;-68
2022/12/26 08:16:07;;;;;;;7.70;3.40;;;;;;;3.81;100.00;99012.98;105731;1288;71411;-68
2022/12/26 08:18:55;;;;;;;8.10;3.70;;;;;;;3.82;100.00;99013.11;105684;1295;58034;-69
2022/12/26 08:21:43;;;;;;;8.50;4.10;;;;;;;3.82;100.00;99008.88;105800;1290;58697;-66
2022/12/26 08:24:31;;;;;;;9.20;3.70;;;;;;;3.84;100.00;98998.42;105783;1291;73687;-68
2022/12/26 08:27:19;;;;;;;7.70;3.70;;;;;;;3.87;100.00;98994.16;105686;1295;69226;-70
2022/12/26 08:30:08;;;;;;;7.60;3.60;;;;;;;3.89;100.00;98990.88;105771;1296;71005;-70
2022/12/26 08:32:56;;;;;;;7.80;3.60;;;;;;;3.91;100.00;98986.73;105787;1295;58529;-70
2022/12/26 08:35:44;;;;;;;10.30;3.80;;;;;;;3.92;100.00;98981.55;105784;1295;60277;-69
2022/12/26 08:38:32;;;;;;;8.00;4.00;;;;;;;3.95;100.00;98979.95;105690;1301;71465;-70
2022/12/26 08:41:21;;;;;;;7.50;3.60;;;;;;;3.99;100.00;98976.85;105797;1290;66402;-71
2022/12/26 08:44:11;;;;;;;8.30;3.60;;;;;;;4.02;100.00;98975.64;105806;1295;71239;-71
2022/12/26 08:47:17;;;;;;;8.70;4.50;;;;;;;4.03;100.00;98966.27;105672;1290;60364;-69
2022/12/26 08:50:05;;;;;;;8.20;4.10;;;;;;;4.05;100.00;98965.17;105821;1297;58748;-70
2022/12/26 08:52:53;;;;;;;7.80;3.60;;;;;;;4.08;100.00;98963.80;105771;1290;73566;-69
2022/12/26 08:55:41;;;;;;;8.60;4.20;;;;;;;4.09;100.00;98960.36;105823;1295;66286;-68
2022/12/26 08:58:29;;;;;;;8.50;4.10;;;;;;;4.14;100.00;98953.88;105685;1294;72380;-67
2022/12/26 09:01:24;;;;;;;7.90;3.80;;;;;;;4.16;100.00;98946.76;105788;1295;59671;-70
2022/12/26 09:04:12;;;;;;;9.50;4.90;;;;;;;4.23;100.00;98953.63;105801;1290;61430;-69
2022/12/26 09:07:00;;;;;;;9.60;4.70;;;;;;;4.30;100.00;98954.05;105804;1294;73881;-71
2022/12/26 09:09:48;;;;;;;10.40;4.70;;;;;;;4.37;100.00;98948.08;105572;1302;66869;-72
2022/12/26 09:12:36;;;;;;;10.20;5.10;;;;;;;4.44;100.00;98944.65;105054;1295;1002130;-68
2022/12/26 09:15:24;;;;;;;9.90;5.10;;;;;;;4.48;100.00;98935.04;105784;1297;60614;-68
2022/12/26 09:18:12;;;;;;;12.00;5.40;;;;;;;4.54;100.00;98932.20;105786;1295;60418;-68
2022/12/26 09:21:03;;;;;;;12.30;5.40;;;;;;;4.57;100.00;98930.55;105787;1297;74886;-69
2022/12/26 09:23:57;;;;;;;10.70;5.80;;;;;;;4.60;100.00;98930.33;105690;1292;67824;-69
2022/12/26 09:26:45;;;;;;;11.00;6.10;;;;;;;4.64;100.00;98932.84;105678;1290;72487;-68
2022/12/26 09:29:33;;;;;;;11.20;6.00;;;;;;;4.69;100.00;98928.14;105796;1295;57945;-70
2022/12/26 09:32:21;;;;;;;10.90;5.90;;;;;;;4.73;100.00;98927.10;105817;1290;59102;-70
2022/12/26 09:35:10;;;;;;;12.70;6.10;;;;;;;4.76;100.00;98928.52;105689;1294;73658;-69
2022/12/26 09:37:58;;;;;;;12.40;7.20;;;;;;;4.77;100.00;98928.05;105806;1295;66369;-71
2022/12/26 09:41:08;;;;;;;12.60;7.20;;;;;;;4.81;100.00;98931.69;105716;1293;70650;-70
2022/12/26 09:44:06;;;;;;;11.40;6.00;;;;;;;4.84;100.00;98937.21;105777;1294;60333;-71
2022/12/26 09:47:31;;;;;;;10.70;6.10;;;;;;;4.84;100.00;98940.19;105546;1297;58651;-68
2022/12/26 09:50:38;;;;;;;11.80;6.80;;;;;;;4.86;100.00;98943.63;105740;1290;73525;-70
2022/12/26 09:53:40;;;;;;;13.00;7.00;;;;;;;4.87;100.00;98946.73;105703;1295;66186;-67
2022/12/26 09:56:32;;;;;;;14.30;7.80;;;;;;;4.88;100.00;98942.20;105697;1287;72335;-67
2022/12/26 09:59:51;;;;;;;13.30;7.50;;;;;;;4.90;100.00;98939.44;104932;1296;1003109;-67
2022/12/26 10:02:39;;;;;;;14.30;7.30;;;;;;;4.92;100.00;98934.58;105822;1295;60056;-69
2022/12/26 10:06:09;;;;;;;13.50;6.70;;;;;;;4.93;100.00;98927.77;105723;1295;73810;-66
2022/12/26 10:09:42;;;;;;;19.60;8.80;;;;;;;4.96;100.00;98935.36;105698;1295;67788;-70
2022/12/26 10:12:37;;;;;;;19.40;9.20;;;;;;;4.98;100.00;98934.66;105684;1290;71347;-70
2022/12/26 10:15:49;;;;;;;18.20;10.00;;;;;;;5.00;100.00;98929.95;105636;1290;58006;-69
2022/12/26 10:19:12;;;;;;;21.40;11.40;;;;;;;5.05;100.00;98930.77;105656;1296;59015;-68
2022/12/26 10:23:03;;;;;;;23.50;12.70;;;;;;;5.08;100.00;98925.44;105799;1295;72513;-68
2022/12/26 10:25:56;;;;;;;20.10;10.80;;;;;;;5.18;100.00;98916.88;105785;1294;68537;-66
2022/12/26 10:28:49;;;;;;;19.40;10.10;;;;;;;5.19;100.00;98912.87;105683;1293;72388;-67
2022/12/26 10:32:00;;;;;;;22.10;10.70;;;;;;;5.21;100.00;98902.92;105695;1295;59439;-69
2022/12/26 10:34:48;;;;;;;18.30;10.70;;;;;;;5.26;100.00;98900.42;105812;1295;60352;-66
2022/12/26 10:37:40;;;;;;;19.10;9.30;;;;;;;5.35;100.00;98901.40;105805;1296;73626;-67
2022/12/26 10:40:43;;;;;;;18.40;9.80;;;;;;;5.42;100.00;98900.83;105782;1295;66847;-69
2022/12/26 10:43:33;;;;;;;19.10;10.30;;;;;;;5.51;100.00;98893.52;105669;1295;72624;-69
2022/12/26 10:46:59;;;;;;;18.30;10.30;;;;;;;5.62;100.00;98883.00;105703;1295;59331;-68
2022/12/26 10:49:48;;;;;;;17.50;8.80;;;;;;;5.72;100.00;98883.30;105823;1291;59533;-67
2022/12/26 10:52:39;;;;;;;18.40;9.60;;;;;;;5.79;100.00;98884.11;104327;1297;1002914;-66
2022/12/26 10:55:34;;;;;;;17.50;8.50;;;;;;;5.85;100.00;98880.15;105631;1297;68926;-66
2022/12/26 10:58:34;;;;;;;18.50;8.60;;;;;;;5.89;100.00;98878.58;105799;1294;72626;-67
2022/12/26 11:01:33;;;;;;;15.00;8.30;;;;;;;6.01;100.00;98879.17;105680;1294;60593;-67
2022/12/26 11:04:25;;;;;;;18.60;9.40;;;;;;;6.08;100.00;98880.38;105724;1294;58682;-66
2022/12/26 11:07:52;;;;;;;15.60;8.20;;;;;;;6.11;100.00;98882.39;105705;1301;72502;-69
2022/12/26 11:11:06;;;;;;;16.90;8.40;;;;;;;6.18;100.00;98873.75;105663;1295;67514;-67
2022/12/26 11:13:59;;;;;;;15.50;8.20;;;;;;;6.31;100.00;98869.45;105690;1298;70991;-67
2022/12/26 11:16:51;;;;;;;16.70;8.90;;;;;;;6.38;100.00;98862.48;105660;1295;58070;-67
2022/12/26 11:19:43;;;;;;;15.10;8.50;;;;;;;6.56;100.00;98858.63;105793;1294;60045;-69
2022/12/26 11:22:31;;;;;;;15.20;8.40;;;;;;;6.68;100.00;98855.20;105681;1287;74820;-66
2022/12/26 11:25:26;;;;;;;14.80;7.40;;;;;;;6.74;100.00;98851.16;105698;1295;65702;-68
2022/12/26 11:28:27;;;;;;;14.50;7.90;;;;;;;6.80;100.00;98852.63;105794;1294;72599;-66
2022/12/26 11:31:26;;;;;;;14.50;7.70;;;;;;;6.81;100.00;98851.12;105681;1291;57987;-69
2022/12/26 11:34:28;;;;;;;14.50;7.50;;;;;;;6.86;100.00;98852.54;105826;1292;60143;-71
2022/12/26 11:37:30;;;;;;;12.60;6.40;;;;;;;6.89;100.00;98854.21;105710;1293;73833;-68
2022/12/26 11:40:31;;;;;;;11.00;6.00;;;;;;;6.88;100.00;98848.64;105784;1295;65341;-71
2022/12/26 11:43:20;;;;;;;14.20;6.70;;;;;;;6.87;100.00;98843.30;105697;1294;71090;-68
2022/12/26 11:46:08;;;;;;;12.00;5.90;;;;;;;6.88;100.00;98835.99;105699;1289;59311;-70
2022/12/26 11:48:56;;;;;;;13.40;6.40;;;;;;;6.92;100.00;98838.60;105783;1290;61189;-68
2022/12/26 11:51:48;;;;;;;11.50;6.00;;;;;;;6.96;100.00;98842.66;105622;1297;74021;-67
2022/12/26 11:54:49;;;;;;;12.40;6.10;;;;;;;6.99;100.00;98842.41;105729;1295;67618;-66
2022/12/26 11:57:38;;;;;;;16.50;7.70;;;;;;;7.03;100.00;98848.09;105792;1290;72566;-68
2022/12/26 12:00:28;;;;;;;14.20;5.80;;;;;;;7.06;100.00;98856.36;105643;1295;59651;-68
2022/12/26 12:03:17;;;;;;;11.40;5.10;;;;;;;7.07;100.00;98864.21;105811;1295;58758;-68
2022/12/26 12:07:06;;;;;;;13.90;5.50;;;;;;;7.07;100.00;98867.55;105802;1295;73155;-67
2022/12/26 12:10:46;;;;;;;11.10;4.60;;;;;;;7.08;100.00;98869.03;105018;1301;66949;-67
2022/12/26 12:13:34;;;;;;;9.50;3.50;;;;;;;7.09;100.00;98869.15;104785;1294;72231;-70
2022/12/26 12:16:35;;;;;;;10.00;4.00;;;;;;;7.08;100.00;98872.76;104962;1302;59440;-70
2022/12/26 12:19:31;;;;;;;8.30;3.40;;;;;;;7.07;100.00;98873.56;104957;1310;60094;-66
2022/12/26 12:22:43;;;;;;;8.00;2.70;;;;;;;7.06;100.00;98878.93;105064;1301;73922;-69
2022/12/26 12:26:30;;;;;;;6.90;2.40;;;;;;;7.02;100.00;98883.54;105051;1309;67599;-67
2022/12/26 12:29:55;;;;;;;7.30;2.50;;;;;;;6.95;100.00;98885.86;104858;1303;73811;-67
2022/12/26 12:33:11;;;;;;;9.80;2.90;;;;;;;6.90;100.00;98884.11;104973;1294;59309;-68
2022/12/26 12:36:16;;;;;;;9.00;3.00;;;;;;;6.84;100.00;98890.22;105006;1301;59219;-68
2022/12/26 12:40:00;;;;;;;13.20;3.20;;;;;;;6.79;100.00;98895.52;104956;1303;73213;-67
2022/12/26 12:43:33;;;;;;;11.30;2.80;;;;;;;6.73;100.00;98895.33;104886;1306;66334;-69
2022/12/26 12:46:43;;;;;;;7.50;2.10;;;;;;;6.69;100.00;98896.05;105301;1297;72371;-68
2022/12/26 12:49:40;;;;;;;6.80;2.30;;;;;;;6.64;100.00;98884.65;105673;1294;60765;-69
2022/12/26 12:52:53;;;;;;;6.20;2.10;;;;;;;6.61;100.00;98893.27;105826;1293;59011;-69
2022/12/26 12:56:38;;;;;;;6.50;2.20;;;;;;;6.59;100.00;98889.91;105671;1293;73580;-70
2022/12/26 12:59:54;;;;;;;6.20;2.00;;;;;;;6.57;100.00;98895.76;105130;1300;68830;-69
2022/12/26 13:02:54;;;;;;;6.80;2.30;;;;;;;6.51;100.00;98896.73;104911;1295;72437;-69
2022/12/26 13:06:34;;;;;;;6.30;1.90;;;;;;;6.47;100.00;98893.87;104746;1307;58154;-69
2022/12/26 13:09:33;;;;;;;8.60;2.50;;;;;;;6.43;100.00;98894.52;104880;1303;60398;-67
2022/12/26 13:12:30;;;;;;;8.00;2.60;;;;;;;6.41;100.00;98888.70;104700;1303;75328;-69
2022/12/26 13:15:44;;;;;;;6.60;2.10;;;;;;;6.38;100.00;98887.37;104845;1302;68934;-70
2022/12/26 13:18:44;;;;;;;6.50;2.00;;;;;;;6.34;100.00;98888.38;104908;1303;72487;-68
2022/12/26 13:21:38;;;;;;;6.70;2.00;;;;;;;6.35;100.00;98887.27;104847;1303;60614;-68
2022/12/26 13:24:45;;;;;;;7.40;2.10;;;;;;;6.32;100.00;98892.08;104713;1305;58032;-69
2022/12/26 13:27:37;;;;;;;6.60;2.30;;;;;;;6.28;100.00;98889.86;104865;1303;73872;-70
2022/12/26 13:30:25;;;;;;;6.70;2.10;;;;;;;6.26;100.00;98893.04;104716;1304;68761;-71
2022/12/26 13:33:14;;;;;;;6.70;1.90;;;;;;;6.24;100.00;98902.20;104929;1308;72772;-68
2022/12/26 13:36:04;;;;;;;6.50;2.20;;;;;;;6.24;100.00;98907.17;105635;1293;59333;-68
2022/12/26 13:39:00;;;;;;;6.90;2.10;;;;;;;6.24;100.00;98905.21;105678;1294;60299;-68
2022/12/26 13:45:48;;;;;;;6.00;2.10;;;;;;;6.18;100.00;98916.75;105712;1292;67558;-66
2022/12/26 13:48:36;;;;;;;6.30;2.20;;;;;;;6.18;100.00;98925.09;105685;1294;72697;-70
2022/12/26 13:52:21;;;;;;;6.70;2.00;;;;;;;6.16;100.00;98926.55;105776;1287;58061;-70
2022/12/26 13:55:12;;;;;;;6.20;2.10;;;;;;;6.15;100.00;98937.59;105121;1300;60104;-69
2022/12/26 13:58:39;;;;;;;6.30;2.00;;;;;;;6.16;100.00;98937.90;105138;1300;72475;-67
2022/12/26 14:02:01;;;;;;;5.70;1.60;;;;;;;6.14;100.00;98940.30;105009;1300;66270;-68
2022/12/26 14:05:37;;;;;;;6.90;2.30;;;;;;;6.09;100.00;98940.47;105046;1300;72692;-68
2022/12/26 14:08:59;;;;;;;6.10;1.90;;;;;;;6.08;100.00;98945.67;105055;1301;59633;-69
2022/12/26 14:12:00;;;;;;;6.00;1.70;;;;;;;6.06;100.00;98941.98;105040;1294;61469;-69
2022/12/26 14:15:24;;;;;;;7.00;2.20;;;;;;;6.04;100.00;98932.81;105169;1306;73833;-69
2022/12/26 14:18:40;;;;;;;6.90;2.30;;;;;;;6.02;100.00;98939.16;105128;1300;66299;-68
2022/12/26 14:21:44;;;;;;;10.90;2.90;;;;;;;6.03;100.00;98939.95;105152;1286;72568;-70
2022/12/26 14:24:54;;;;;;;7.30;2.20;;;;;;;6.02;100.00;98942.11;105037;1296;59291;-68
2022/12/26 14:28:16;;;;;;;6.70;2.60;;;;;;;6.00;100.00;98945.23;105149;1300;58050;-70
2022/12/26 14:31:07;;;;;;;7.80;2.40;;;;;;;5.99;100.00;98941.45;105524;1293;73604;-70
2022/12/26 14:34:29;;;;;;;6.30;2.00;;;;;;;5.98;100.00;98940.11;102855;1295;1002800;-69
2022/12/26 14:37:49;;;;;;;6.00;2.00;;;;;;;5.97;100.00;98935.24;105797;1295;72328;-67
2022/12/26 14:41:02;;;;;;;5.90;1.80;;;;;;;5.96;100.00;98934.10;105668;1291;59237;-70
2022/12/26 14:43:50;;;;;;;6.30;2.10;;;;;;;5.95;100.00;98933.79;105826;1287;58724;-70
2022/12/26 14:46:47;;;;;;;6.60;2.30;;;;;;;5.95;100.00;98941.16;105696;1295;72470;-68
2022/12/26 14:49:41;;;;;;;6.80;1.70;;;;;;;5.97;100.00;98944.23;105805;1294;67794;-71
2022/12/26 14:52:35;;;;;;;7.60;2.00;;;;;;;5.99;100.00;98952.91;105791;1293;72857;-70
2022/12/26 14:56:09;;;;;;;6.50;1.90;;;;;;;5.99;100.00;98953.06;105787;1295;59622;-70
2022/12/26 14:59:31;;;;;;;5.40;1.80;;;;;;;6.01;100.00;98962.25;105137;1299;60276;-70
2022/12/26 15:02:19;;;;;;;5.80;1.90;;;;;;;6.03;100.00;98967.79;104951;1300;73580;-70
2022/12/26 15:05:24;;;;;;;6.40;1.80;;;;;;;6.03;100.00;98970.39;105142;1298;67035;-69
2022/12/26 15:08:53;;;;;;;7.10;2.30;;;;;;;6.02;100.00;98972.55;105037;1300;71094;-72
2022/12/26 15:12:10;;;;;;;6.40;1.90;;;;;;;6.01;100.00;98971.56;104931;1308;58572;-68
2022/12/26 15:15:30;;;;;;;6.40;1.80;;;;;;;6.00;100.00;98975.02;105162;1300;60534;-69
2022/12/26 15:19:01;;;;;;;7.50;2.00;;;;;;;6.01;100.00;98976.92;105031;1293;74111;-70
2022/12/26 15:22:20;;;;;;;6.60;2.10;;;;;;;6.01;100.00;98977.91;105158;1300;65536;-69
2022/12/26 15:26:01;;;;;;;5.90;2.20;;;;;;;6.01;100.00;98974.74;105137;1292;71278;-70
2022/12/26 15:29:07;;;;;;;6.60;1.90;;;;;;;6.02;100.00;98974.48;105165;1300;58124;-67
2022/12/26 15:32:23;;;;;;;7.10;2.10;;;;;;;6.05;100.00;98968.61;105186;1292;58777;-72
2022/12/26 15:35:29;;;;;;;6.70;2.20;;;;;;;6.06;100.00;98971.61;105798;1288;73644;-68
2022/12/26 15:38:48;;;;;;;7.70;2.70;;;;;;;6.07;100.00;98972.34;105699;1294;67571;-70
2022/12/26 15:41:49;;;;;;;7.20;2.70;;;;;;;6.08;100.00;98973.52;105773;1292;71615;-70